MMSD

Details ICAO MMSD (SJD)
Name Los Cabos Intl
Region Mexico
Timezone America/Mazatlan (UTC-6.0)
Plans Departing 174
Arriving 260
Stats Elevation 374 ft / 114 m (AMSL)
Location 23.152100° -109.721000°
Runways 1
Magnetic Variation 8.253° E
Sunrise 2018-10-16 13:17:20 UTC / 2018-10-16 07:17:20 Local
Sunset 2018-10-17 00:53:45 UTC / 2018-10-16 18:53:45 Local
Advertisement - Login to hide

Runways

ID Width Length Bearing (true/mag) Surface Threshold Overrun Markings Lighting
16 148 ft / 45 m 9,853 ft / 3,003 m 173.95° / 165.70° ASPHALT 0 ft / 0 m 197 ft / 60 m APP EDGE THRESHOLD
34 148 ft / 45 m 9,853 ft / 3,003 m 353.95° / 345.70° ASPHALT 0 ft / 0 m 200 ft / 61 m APP EDGE THRESHOLD

Map

Weather


0- 5 10 15 20 25 30 35+ Temperature / °C

Clouds and Precipitation
Forecast for 2018-10-17 06:00 UTC. Updated 3 hours ago

Ground ~20,000 ft ~40,000 ft Winds

METAR

Not found

TAF

TAF MMSD 170446Z 1706/1806 30005KT P6SM SCT250 FM171600 33012KT P6SM SCT030 FM180300 26008KT P6SM SKC

Frequencies

Recorded 127.60 MHz ATIS
Approach 120.90 MHz SAN JOSE APP
Tower 118.90 MHz SAN JOSE TWR
Warning: Do not use this data for real-world aviation or navigation. No guarantee of current accuracy is given.